createdAt,value
2016-04-03T00:00:39.153Z,958.92
2016-04-03T00:01:39.155Z,958.89
2016-04-03T00:02:39.158Z,958.89
2016-04-03T00:03:39.176Z,958.91
2016-04-03T00:04:39.178Z,958.89
2016-04-03T00:05:39.181Z,958.93
2016-04-03T00:06:39.184Z,958.91
2016-04-03T00:07:39.203Z,958.89
2016-04-03T00:08:39.205Z,958.88
2016-04-03T00:09:39.208Z,958.89
2016-04-03T00:10:39.210Z,958.89
2016-04-03T00:11:39.229Z,958.88
2016-04-03T00:12:39.232Z,958.91
2016-04-03T00:13:39.235Z,958.9
2016-04-03T00:14:39.237Z,958.91
2016-04-03T00:15:39.255Z,958.92
2016-04-03T00:16:39.258Z,958.91
2016-04-03T00:17:39.261Z,958.93
2016-04-03T00:18:39.264Z,958.94
2016-04-03T00:19:39.266Z,958.99
2016-04-03T00:20:39.285Z,959.02
2016-04-03T00:21:39.288Z,958.99
2016-04-03T00:22:39.290Z,958.94
2016-04-03T00:23:39.293Z,958.9
2016-04-03T00:24:39.310Z,958.84
2016-04-03T00:25:39.314Z,958.84
2016-04-03T00:26:39.316Z,958.79
2016-04-03T00:27:39.319Z,958.84
2016-04-03T00:28:39.322Z,958.82
2016-04-03T00:29:39.340Z,958.82
2016-04-03T00:30:39.343Z,958.81
2016-04-03T00:31:39.345Z,958.82
2016-04-03T00:32:39.364Z,958.84
2016-04-03T00:33:39.367Z,958.8
2016-04-03T00:34:39.369Z,958.8
2016-04-03T00:35:39.372Z,958.77
2016-04-03T00:36:39.389Z,958.74
2016-04-03T00:37:39.392Z,958.72
2016-04-03T00:38:39.395Z,958.7
2016-04-03T00:39:39.398Z,958.76
2016-04-03T00:40:39.417Z,958.77
2016-04-03T00:41:39.420Z,958.8
2016-04-03T00:42:39.422Z,958.84
2016-04-03T00:43:39.425Z,958.81
2016-04-03T00:44:39.427Z,958.84
2016-04-03T00:45:39.446Z,958.83
2016-04-03T00:46:39.449Z,958.86
2016-04-03T00:47:39.451Z,958.83
2016-04-03T00:48:39.469Z,958.86
2016-04-03T00:49:39.471Z,958.85
2016-04-03T00:50:39.474Z,958.88
2016-04-03T00:51:39.477Z,958.87
2016-04-03T00:52:39.480Z,958.83
2016-04-03T00:53:39.499Z,958.77
2016-04-03T00:54:39.501Z,958.8
2016-04-03T00:55:39.504Z,958.8
2016-04-03T00:56:39.506Z,958.82
2016-04-03T00:57:39.524Z,958.78
2016-04-03T00:58:39.527Z,958.79
2016-04-03T00:59:39.529Z,958.75
2016-04-03T01:00:39.533Z,958.73
2016-04-03T01:01:39.535Z,958.74
2016-04-03T01:02:39.554Z,958.73
2016-04-03T01:03:39.557Z,958.73
2016-04-03T01:04:39.560Z,958.76
2016-04-03T01:05:39.578Z,958.73
2016-04-03T01:06:39.581Z,958.75
2016-04-03T01:07:39.590Z,958.74
2016-04-03T01:08:39.593Z,958.74
2016-04-03T01:09:39.595Z,958.7
2016-04-03T01:10:39.598Z,958.72
2016-04-03T01:11:39.601Z,958.72
2016-04-03T01:12:39.618Z,958.7
2016-04-03T01:13:39.621Z,958.66
2016-04-03T01:14:39.623Z,958.57
2016-04-03T01:15:39.627Z,958.6
2016-04-03T01:16:39.629Z,958.59
2016-04-03T01:17:39.636Z,958.6
2016-04-03T01:18:39.655Z,958.6
2016-04-03T01:19:39.657Z,958.63
2016-04-03T01:20:39.675Z,958.62
2016-04-03T01:21:39.677Z,958.62
2016-04-03T01:22:39.680Z,958.64
2016-04-03T01:23:39.683Z,958.64
2016-04-03T01:24:39.686Z,958.65
2016-04-03T01:25:39.689Z,958.62
2016-04-03T01:26:39.708Z,958.62
2016-04-03T01:27:39.710Z,958.62
2016-04-03T01:28:39.713Z,958.64
2016-04-03T01:29:39.715Z,958.63
2016-04-03T01:30:39.734Z,958.64
2016-04-03T01:31:39.737Z,958.66
2016-04-03T01:32:39.739Z,958.71
2016-04-03T01:33:39.742Z,958.65
2016-04-03T01:34:39.759Z,958.58
2016-04-03T01:35:39.762Z,958.54
2016-04-03T01:36:39.765Z,958.55
2016-04-03T01:37:39.767Z,958.58
2016-04-03T01:38:39.771Z,958.57
2016-04-03T01:39:39.789Z,958.57
2016-04-03T01:40:39.792Z,958.53
2016-04-03T01:41:39.809Z,958.56
2016-04-03T01:42:39.797Z,958.55
2016-04-03T01:43:39.815Z,958.55
2016-04-03T01:44:39.817Z,958.53
2016-04-03T01:45:39.820Z,958.49
2016-04-03T01:46:39.823Z,958.45
2016-04-03T01:47:39.842Z,958.42
2016-04-03T01:48:39.845Z,958.37
2016-04-03T01:49:39.847Z,958.36
2016-04-03T01:50:39.850Z,958.37
2016-04-03T01:51:39.852Z,958.36
2016-04-03T01:52:39.871Z,958.39
2016-04-03T01:53:39.874Z,958.41
2016-04-03T01:54:39.892Z,958.46
2016-04-03T01:55:39.879Z,958.41
2016-04-03T01:56:39.897Z,958.39
2016-04-03T01:57:39.899Z,958.32
2016-04-03T01:58:39.902Z,958.42
2016-04-03T01:59:39.905Z,958.38
2016-04-03T02:00:39.924Z,958.39
2016-04-03T02:01:39.927Z,958.37
2016-04-03T02:02:39.929Z,958.38
2016-04-03T02:03:39.932Z,958.37
2016-04-03T02:04:39.950Z,958.42
2016-04-03T02:05:39.953Z,958.4
2016-04-03T02:06:39.956Z,958.39
2016-04-03T02:07:39.962Z,958.37
2016-04-03T02:08:39.965Z,958.35
2016-04-03T02:09:39.968Z,958.38
2016-04-03T02:10:39.987Z,958.44
2016-04-03T02:11:39.990Z,958.46
2016-04-03T02:12:39.992Z,958.47
2016-04-03T02:13:40.011Z,958.53
2016-04-03T02:14:40.013Z,958.51
2016-04-03T02:15:40.016Z,958.46
2016-04-03T02:16:40.019Z,958.46
2016-04-03T02:17:40.021Z,958.46
2016-04-03T02:18:40.039Z,958.45
2016-04-03T02:19:40.041Z,958.5
2016-04-03T02:20:40.044Z,958.47
2016-04-03T02:21:40.047Z,958.43
2016-04-03T02:22:40.066Z,958.42
2016-04-03T02:23:40.069Z,958.4
2016-04-03T02:24:40.071Z,958.31
2016-04-03T02:25:40.074Z,958.36
2016-04-03T02:26:40.092Z,958.31
2016-04-03T02:27:40.095Z,958.29
2016-04-03T02:28:40.098Z,958.36
2016-04-03T02:29:40.101Z,958.35
2016-04-03T02:30:40.103Z,958.37
2016-04-03T02:31:40.121Z,958.3
2016-04-03T02:32:40.123Z,958.32
2016-04-03T02:33:40.126Z,958.27
2016-04-03T02:34:40.129Z,958.25
2016-04-03T02:35:40.132Z,958.25
2016-04-03T02:36:40.151Z,958.25
2016-04-03T02:37:40.153Z,958.3
2016-04-03T02:38:40.156Z,958.32
2016-04-03T02:39:40.158Z,958.27
2016-04-03T02:40:40.176Z,958.22
2016-04-03T02:41:40.179Z,958.25
2016-04-03T02:42:40.181Z,958.24
2016-04-03T02:43:40.184Z,958.32
2016-04-03T02:44:40.203Z,958.29
2016-04-03T02:45:40.206Z,958.3
2016-04-03T02:46:40.209Z,958.23
2016-04-03T02:47:40.211Z,958.23
2016-04-03T02:48:40.230Z,958.27
2016-04-03T02:49:40.232Z,958.26
2016-04-03T02:50:40.235Z,958.2
2016-04-03T02:51:40.237Z,958.18
2016-04-03T02:52:40.240Z,958.21
2016-04-03T02:53:40.258Z,958.23
2016-04-03T02:54:40.277Z,958.2
2016-04-03T02:55:40.264Z,958.2
2016-04-03T02:56:40.266Z,958.24
2016-04-03T02:57:40.285Z,958.24
2016-04-03T02:58:40.288Z,958.26
2016-04-03T02:59:40.291Z,958.3
2016-04-03T03:00:40.293Z,958.28
2016-04-03T03:01:40.296Z,958.39
2016-04-03T03:02:40.314Z,958.34
2016-04-03T03:03:40.317Z,958.34
2016-04-03T03:04:40.320Z,958.3
2016-04-03T03:05:40.322Z,958.29
2016-04-03T03:06:40.340Z,958.28
2016-04-03T03:07:40.342Z,958.28
2016-04-03T03:08:40.345Z,958.37
2016-04-03T03:09:40.348Z,958.37
2016-04-03T03:10:40.351Z,958.38
2016-04-03T03:11:40.370Z,958.28
2016-04-03T03:12:40.372Z,958.32
2016-04-03T03:13:40.390Z,958.27
2016-04-03T03:14:40.392Z,958.22
2016-04-03T03:15:40.395Z,958.24
2016-04-03T03:16:40.398Z,958.2
2016-04-03T03:17:40.400Z,958.24
2016-04-03T03:18:40.404Z,958.33
2016-04-03T03:19:40.422Z,958.34
2016-04-03T03:20:40.425Z,958.38
2016-04-03T03:21:40.428Z,958.48
2016-04-03T03:22:40.430Z,958.56
2016-04-03T03:23:40.433Z,958.54
2016-04-03T03:24:40.451Z,958.54
2016-04-03T03:25:40.454Z,958.55
2016-04-03T03:26:40.457Z,958.6
2016-04-03T03:27:40.459Z,958.61
2016-04-03T03:28:40.477Z,958.63
2016-04-03T03:29:40.480Z,958.67
2016-04-03T03:30:40.482Z,958.57
2016-04-03T03:31:40.486Z,958.55
2016-04-03T03:32:40.488Z,958.5
2016-04-03T03:33:40.507Z,958.51
2016-04-03T03:34:40.510Z,958.45
2016-04-03T03:35:40.512Z,958.44
2016-04-03T03:36:40.515Z,958.45
2016-04-03T03:37:40.533Z,958.5
2016-04-03T03:38:40.536Z,958.58
2016-04-03T03:39:40.539Z,958.62
2016-04-03T03:40:40.556Z,958.7
2016-04-03T03:41:40.559Z,958.71
2016-04-03T03:42:40.561Z,958.72
2016-04-03T03:43:40.564Z,958.69
2016-04-03T03:44:40.567Z,958.71
2016-04-03T03:45:40.570Z,958.66
2016-04-03T03:46:40.589Z,958.69
2016-04-03T03:47:40.591Z,958.72
2016-04-03T03:48:40.594Z,958.72
2016-04-03T03:49:40.596Z,958.79
2016-04-03T03:50:40.614Z,958.8
2016-04-03T03:51:40.617Z,958.74
2016-04-03T03:52:40.619Z,958.65
2016-04-03T03:53:40.622Z,958.61
2016-04-03T03:54:40.641Z,958.58
2016-04-03T03:55:40.644Z,958.56
2016-04-03T03:56:40.647Z,958.6
2016-04-03T03:57:40.650Z,958.56
2016-04-03T03:58:40.668Z,958.54
2016-04-03T03:59:40.671Z,958.51
2016-04-03T04:00:40.673Z,958.52
2016-04-03T04:01:40.676Z,958.55
2016-04-03T04:02:40.679Z,958.59
2016-04-03T04:03:40.696Z,958.62
2016-04-03T04:04:40.699Z,958.67
2016-04-03T04:05:40.701Z,958.68
2016-04-03T04:06:40.705Z,958.69
2016-04-03T04:07:40.707Z,958.65
2016-04-03T04:08:40.726Z,958.65
2016-04-03T04:09:40.729Z,958.66
2016-04-03T04:10:40.731Z,958.64
2016-04-03T04:11:40.734Z,958.59
2016-04-03T04:12:40.752Z,958.58
2016-04-03T04:13:40.755Z,958.58
2016-04-03T04:14:40.758Z,958.58
2016-04-03T04:15:40.760Z,958.59
2016-04-03T04:16:40.778Z,958.59
2016-04-03T04:17:40.780Z,958.61
2016-04-03T04:18:40.783Z,958.66
2016-04-03T04:19:40.786Z,958.67
2016-04-03T04:20:40.789Z,958.61
2016-04-03T04:21:40.808Z,958.56
2016-04-03T04:22:40.811Z,958.59
2016-04-03T04:23:40.813Z,958.6
2016-04-03T04:24:40.816Z,958.57
2016-04-03T04:25:40.833Z,958.56
2016-04-03T04:26:40.852Z,958.6
2016-04-03T04:27:40.839Z,958.58
2016-04-03T04:28:40.841Z,958.59
2016-04-03T04:29:40.845Z,958.61
2016-04-03T04:30:40.863Z,958.61
2016-04-03T04:31:40.866Z,958.64
2016-04-03T04:32:40.869Z,958.62
2016-04-03T04:33:40.871Z,958.64
2016-04-03T04:34:40.890Z,958.58
2016-04-03T04:35:40.892Z,958.59
2016-04-03T04:36:40.895Z,958.56
2016-04-03T04:37:40.898Z,958.53
2016-04-03T04:38:40.900Z,958.56
2016-04-03T04:39:40.918Z,958.56
2016-04-03T04:40:40.920Z,958.59
2016-04-03T04:41:40.923Z,958.61
2016-04-03T04:42:40.926Z,958.59
2016-04-03T04:43:40.945Z,958.61
2016-04-03T04:44:40.948Z,958.56
2016-04-03T04:45:40.950Z,958.6
2016-04-03T04:46:40.953Z,958.56
2016-04-03T04:47:40.955Z,958.62
2016-04-03T04:48:40.974Z,958.58
2016-04-03T04:49:40.977Z,958.61
2016-04-03T04:50:40.980Z,958.63
2016-04-03T04:51:40.982Z,958.66
2016-04-03T04:52:41.000Z,958.67
2016-04-03T04:53:41.002Z,958.67
2016-04-03T04:54:41.005Z,958.69
2016-04-03T04:55:41.008Z,958.65
2016-04-03T04:56:41.010Z,958.73
2016-04-03T04:57:41.014Z,958.75
2016-04-03T04:58:41.032Z,958.74
2016-04-03T04:59:41.035Z,958.79
2016-04-03T05:00:41.038Z,958.82
2016-04-03T05:01:41.040Z,958.82
2016-04-03T05:02:41.058Z,958.87
2016-04-03T05:03:41.060Z,958.85
2016-04-03T05:04:41.063Z,958.79
2016-04-03T05:05:41.066Z,958.74
2016-04-03T05:06:41.085Z,958.75
2016-04-03T05:07:41.088Z,958.74
2016-04-03T05:08:41.090Z,958.71
2016-04-03T05:09:41.093Z,958.68
2016-04-03T05:10:41.111Z,958.65
2016-04-03T05:11:41.114Z,958.7
2016-04-03T05:12:41.117Z,958.73
2016-04-03T05:13:41.119Z,958.71
2016-04-03T05:14:41.111Z,958.71
2016-04-03T05:15:41.118Z,958.71
2016-04-03T05:16:41.118Z,958.7
2016-04-03T05:17:41.109Z,958.73
2016-04-03T05:18:41.100Z,958.72
2016-04-03T05:19:41.093Z,958.79
2016-04-03T05:20:41.107Z,958.83
2016-04-03T05:21:41.106Z,958.83
2016-04-03T05:22:41.105Z,958.84
2016-04-03T05:23:41.103Z,958.87
2016-04-03T05:24:41.119Z,958.89
2016-04-03T05:25:41.120Z,958.89
2016-04-03T05:26:41.121Z,958.85
2016-04-03T05:27:41.122Z,958.85
2016-04-03T05:28:41.124Z,958.85
2016-04-03T05:29:41.140Z,958.84
2016-04-03T05:30:41.142Z,958.74
2016-04-03T05:31:41.144Z,958.79
2016-04-03T05:32:41.146Z,958.84
2016-04-03T05:33:41.149Z,958.82
2016-04-03T05:34:41.167Z,958.81
2016-04-03T05:35:41.169Z,958.91
2016-04-03T05:36:41.172Z,958.96
2016-04-03T05:37:41.174Z,958.91
2016-04-03T05:38:41.191Z,958.88
2016-04-03T05:39:41.194Z,958.95
2016-04-03T05:40:41.196Z,958.88
2016-04-03T05:41:41.199Z,958.85
2016-04-03T05:42:41.218Z,958.87
2016-04-03T05:43:41.220Z,958.95
2016-04-03T05:44:41.223Z,958.94
2016-04-03T05:45:41.225Z,958.96
2016-04-03T05:46:41.228Z,958.96
2016-04-03T05:47:41.231Z,958.98
2016-04-03T05:48:41.249Z,958.94
2016-04-03T05:49:41.252Z,958.93
2016-04-03T05:50:41.255Z,958.95
2016-04-03T05:51:41.258Z,959
2016-04-03T05:52:41.275Z,958.9
2016-04-03T05:53:41.278Z,958.93
2016-04-03T05:54:41.281Z,958.99
2016-04-03T05:55:41.284Z,959.02
2016-04-03T05:56:41.286Z,958.99
2016-04-03T05:57:41.305Z,959.02
2016-04-03T05:58:41.308Z,958.96
2016-04-03T05:59:41.311Z,958.88
2016-04-03T06:00:41.329Z,958.92
2016-04-03T06:01:41.332Z,958.9
2016-04-03T06:02:41.334Z,958.9
2016-04-03T06:03:41.337Z,958.89
2016-04-03T06:04:41.340Z,958.85
2016-04-03T06:05:41.358Z,958.84
2016-04-03T06:06:41.360Z,958.9
2016-04-03T06:07:41.363Z,958.85
2016-04-03T06:08:41.366Z,958.81
2016-04-03T06:09:41.368Z,958.87
2016-04-03T06:10:41.371Z,958.94
2016-04-03T06:11:41.390Z,958.87
2016-04-03T06:12:41.392Z,958.88
2016-04-03T06:13:41.395Z,958.95
2016-04-03T06:14:41.398Z,959
2016-04-03T06:15:41.415Z,958.98
2016-04-03T06:16:41.418Z,958.9
2016-04-03T06:17:41.421Z,958.97
2016-04-03T06:18:41.423Z,958.97
2016-04-03T06:19:41.426Z,958.92
2016-04-03T06:20:41.445Z,958.88
2016-04-03T06:21:41.448Z,958.9
2016-04-03T06:22:41.450Z,958.88
2016-04-03T06:23:41.453Z,958.86
2016-04-03T06:24:41.472Z,958.78
2016-04-03T06:25:41.475Z,958.78
2016-04-03T06:26:41.477Z,958.84
2016-04-03T06:27:41.480Z,958.86
2016-04-03T06:28:41.498Z,958.85
2016-04-03T06:29:41.500Z,958.88
2016-04-03T06:30:41.503Z,958.85
2016-04-03T06:31:41.506Z,958.87
2016-04-03T06:32:41.524Z,958.94
2016-04-03T06:33:41.511Z,958.91
2016-04-03T06:34:41.530Z,958.92
2016-04-03T06:35:41.532Z,958.91
2016-04-03T06:36:41.535Z,958.9
2016-04-03T06:37:41.554Z,958.91
2016-04-03T06:38:41.556Z,958.95
2016-04-03T06:39:41.559Z,958.96
2016-04-03T06:40:41.562Z,958.95
2016-04-03T06:41:41.564Z,958.96
2016-04-03T06:42:41.598Z,958.94
2016-04-03T06:43:41.585Z,958.94
2016-04-03T06:44:41.587Z,958.99
2016-04-03T06:45:41.590Z,958.95
2016-04-03T06:46:41.609Z,958.91
2016-04-03T06:47:41.612Z,958.94
2016-04-03T06:48:41.615Z,958.91
2016-04-03T06:49:41.617Z,958.94
2016-04-03T06:50:41.620Z,958.98
2016-04-03T06:51:41.637Z,959
2016-04-03T06:52:41.640Z,958.98
2016-04-03T06:53:41.643Z,958.99
2016-04-03T06:54:41.645Z,958.97
2016-04-03T06:55:41.648Z,958.98
2016-04-03T06:56:41.667Z,958.93
2016-04-03T06:57:41.670Z,959
2016-04-03T06:58:41.673Z,959
2016-04-03T06:59:41.691Z,959.05
2016-04-03T07:00:41.694Z,959.04
2016-04-03T07:01:41.696Z,959.04
2016-04-03T07:02:41.699Z,959.04
2016-04-03T07:03:41.702Z,959.05
2016-04-03T07:04:41.719Z,959.13
2016-04-03T07:05:41.722Z,959.11
2016-04-03T07:06:41.725Z,959.08
2016-04-03T07:07:41.727Z,959.08
2016-04-03T07:08:41.730Z,959.08
2016-04-03T07:09:41.749Z,959.06
2016-04-03T07:10:41.751Z,959.07
2016-04-03T07:11:41.755Z,959.11
2016-04-03T07:12:41.757Z,959.08
2016-04-03T07:13:41.760Z,959.1
2016-04-03T07:14:41.779Z,959.14
2016-04-03T07:15:41.782Z,959.12
2016-04-03T07:16:41.799Z,959.1
2016-04-03T07:17:41.802Z,959.09
2016-04-03T07:18:41.805Z,959.12
2016-04-03T07:19:41.807Z,959.14
2016-04-03T07:20:41.810Z,959.11
2016-04-03T07:21:41.829Z,959.09
2016-04-03T07:22:41.831Z,959.15
2016-04-03T07:23:41.834Z,959.15
2016-04-03T07:24:41.836Z,959.14
2016-04-03T07:25:41.854Z,959.16
2016-04-03T07:26:41.857Z,959.16
2016-04-03T07:27:41.859Z,959.13
2016-04-03T07:28:41.862Z,959.14
2016-04-03T07:29:41.881Z,959.14
2016-04-03T07:30:41.883Z,959.11
2016-04-03T07:31:41.886Z,959.03
2016-04-03T07:32:41.889Z,959.08
2016-04-03T07:33:41.908Z,959.12
2016-04-03T07:34:41.911Z,959.15
2016-04-03T07:35:41.914Z,959.15
2016-04-03T07:36:41.916Z,959.13
2016-04-03T07:37:41.919Z,959.13
2016-04-03T07:38:41.937Z,959.16
2016-04-03T07:39:41.939Z,959.17
2016-04-03T07:40:41.942Z,959.16
2016-04-03T07:41:41.944Z,959.15
2016-04-03T07:42:41.963Z,959.2
2016-04-03T07:43:41.966Z,959.25
2016-04-03T07:44:41.968Z,959.21
2016-04-03T07:45:41.971Z,959.19
2016-04-03T07:46:41.974Z,959.18
2016-04-03T07:47:41.992Z,959.18
2016-04-03T07:48:41.995Z,959.18
2016-04-03T07:49:41.997Z,959.17
2016-04-03T07:50:42.000Z,959.17
2016-04-03T07:51:42.003Z,959.22
2016-04-03T07:52:42.021Z,959.2
2016-04-03T07:53:42.024Z,959.22
2016-04-03T07:54:42.026Z,959.2
2016-04-03T07:55:42.029Z,959.23
2016-04-03T07:56:42.048Z,959.23
2016-04-03T07:57:42.050Z,959.19
2016-04-03T07:58:42.053Z,959.19
2016-04-03T07:59:42.056Z,959.16
2016-04-03T08:00:42.073Z,959.18
2016-04-03T08:01:42.076Z,959.16
2016-04-03T08:02:42.078Z,959.18
2016-04-03T08:03:42.082Z,959.17
2016-04-03T08:04:42.100Z,959.14
2016-04-03T08:05:42.103Z,959.16
2016-04-03T08:06:42.106Z,959.13
2016-04-03T08:07:42.108Z,959.15
2016-04-03T08:08:42.127Z,959.14
2016-04-03T08:09:42.129Z,959.17
2016-04-03T08:10:42.132Z,959.13
2016-04-03T08:11:42.135Z,959.15
2016-04-03T08:12:42.138Z,959.17
2016-04-03T08:13:42.155Z,959.19
2016-04-03T08:14:42.158Z,959.19
2016-04-03T08:15:42.161Z,959.21
2016-04-03T08:16:42.163Z,959.2
2016-04-03T08:17:42.166Z,959.18
2016-04-03T08:18:42.184Z,959.18
2016-04-03T08:19:42.187Z,959.14
2016-04-03T08:20:42.190Z,959.13
2016-04-03T08:21:42.208Z,959.13
2016-04-03T08:22:42.212Z,959.11
2016-04-03T08:23:42.214Z,959.16
2016-04-03T08:24:42.217Z,959.13
2016-04-03T08:25:42.235Z,959.14
2016-04-03T08:26:42.238Z,959.13
2016-04-03T08:27:42.240Z,959.17
2016-04-03T08:28:42.243Z,959.13
2016-04-03T08:29:42.262Z,959.16
2016-04-03T08:30:42.264Z,959.13
2016-04-03T08:31:42.267Z,959.1
2016-04-03T08:32:42.270Z,959.13
2016-04-03T08:33:42.287Z,959.16
2016-04-03T08:34:42.290Z,959.14
2016-04-03T08:35:42.293Z,959.17
2016-04-03T08:36:42.295Z,959.17
2016-04-03T08:37:42.314Z,959.13
2016-04-03T08:38:42.316Z,959.18
2016-04-03T08:39:42.335Z,959.16
2016-04-03T08:40:42.322Z,959.15
2016-04-03T08:41:42.324Z,959.14
2016-04-03T08:42:42.343Z,959.18
2016-04-03T08:43:42.346Z,959.17
2016-04-03T08:44:42.349Z,959.17
2016-04-03T08:45:42.366Z,959.19
2016-04-03T08:46:42.369Z,959.18
2016-04-03T08:47:42.371Z,959.14
2016-04-03T08:48:42.374Z,959.12
2016-04-03T08:49:42.393Z,959.11
2016-04-03T08:50:42.395Z,959.12
2016-04-03T08:51:42.398Z,959.08
2016-04-03T08:52:42.401Z,959.09
2016-04-03T08:53:42.419Z,959.09
2016-04-03T08:54:42.422Z,959.07
2016-04-03T08:55:42.425Z,959.08
2016-04-03T08:56:42.442Z,959.07
2016-04-03T08:57:42.446Z,959.08
2016-04-03T08:58:42.448Z,959.03
2016-04-03T08:59:42.451Z,959.06
2016-04-03T09:00:42.469Z,959.08
2016-04-03T09:01:42.472Z,959.03
2016-04-03T09:02:42.475Z,959.06
2016-04-03T09:03:42.477Z,959.04
2016-04-03T09:04:42.495Z,959.05
2016-04-03T09:05:42.498Z,959.08
2016-04-03T09:06:42.501Z,959.02
2016-04-03T09:07:42.532Z,958.98
2016-04-03T09:08:42.513Z,959.02
2016-04-03T09:09:42.532Z,959.02
2016-04-03T09:10:42.535Z,958.98
2016-04-03T09:11:42.537Z,958.97
2016-04-03T09:12:42.556Z,958.93
2016-04-03T09:13:42.558Z,958.99
2016-04-03T09:14:42.561Z,958.98
2016-04-03T09:15:42.564Z,958.95
2016-04-03T09:16:42.582Z,958.96
2016-04-03T09:17:42.585Z,958.97
2016-04-03T09:18:42.587Z,959.02
2016-04-03T09:19:42.590Z,958.99
2016-04-03T09:20:42.593Z,959
2016-04-03T09:21:42.611Z,959
2016-04-03T09:22:42.614Z,958.94
2016-04-03T09:23:42.616Z,958.95
2016-04-03T09:24:42.634Z,958.94
2016-04-03T09:25:42.636Z,958.89
2016-04-03T09:26:42.639Z,958.89
2016-04-03T09:27:42.658Z,958.85
2016-04-03T09:28:42.661Z,958.86
2016-04-03T09:29:42.664Z,958.87
2016-04-03T09:30:42.682Z,958.85
2016-04-03T09:31:42.685Z,958.89
2016-04-03T09:32:42.702Z,958.88
2016-04-03T09:33:42.691Z,958.88
2016-04-03T09:34:42.693Z,958.89
2016-04-03T09:35:42.711Z,958.9
2016-04-03T09:36:42.713Z,958.92
2016-04-03T09:37:42.716Z,958.87
2016-04-03T09:38:42.721Z,958.8
2016-04-03T09:39:42.739Z,958.8
2016-04-03T09:40:42.742Z,958.8
2016-04-03T09:41:42.745Z,958.79
2016-04-03T09:42:42.762Z,958.77
2016-04-03T09:43:42.765Z,958.8
2016-04-03T09:44:42.768Z,958.76
2016-04-03T09:45:42.771Z,958.73
2016-04-03T09:46:42.789Z,958.75
2016-04-03T09:47:42.792Z,958.73
2016-04-03T09:48:42.795Z,958.71
2016-04-03T09:49:42.813Z,958.7
2016-04-03T09:50:42.816Z,958.71
2016-04-03T09:51:42.819Z,958.65
2016-04-03T09:52:42.822Z,958.71
2016-04-03T09:53:42.840Z,958.66
2016-04-03T09:54:42.842Z,958.69
2016-04-03T09:55:42.844Z,958.69
2016-04-03T09:56:42.863Z,958.65
2016-04-03T09:57:42.866Z,958.65
2016-04-03T09:58:42.868Z,958.67
2016-04-03T09:59:42.887Z,958.67
2016-04-03T10:00:42.890Z,958.67
2016-04-03T10:01:42.893Z,958.67
2016-04-03T10:02:42.905Z,958.71
2016-04-03T10:03:42.910Z,958.67
2016-04-03T10:04:42.914Z,958.67
2016-04-03T10:05:42.927Z,958.64
2016-04-03T10:06:42.937Z,958.64
2016-04-03T10:07:42.940Z,958.64
2016-04-03T10:08:42.942Z,958.66
2016-04-03T10:09:42.960Z,958.64
2016-04-03T10:10:42.962Z,958.62
2016-04-03T10:11:42.966Z,958.65
2016-04-03T10:12:42.984Z,958.65
2016-04-03T10:13:42.987Z,958.66
2016-04-03T10:14:43.006Z,958.66
2016-04-03T10:15:42.992Z,958.65
2016-04-03T10:16:43.011Z,958.66
2016-04-03T10:17:43.013Z,958.65
2016-04-03T10:18:43.016Z,958.62
2016-04-03T10:19:43.050Z,958.6
2016-04-03T10:20:43.037Z,958.6
2016-04-03T10:21:43.039Z,958.52
2016-04-03T10:22:43.058Z,958.51
2016-04-03T10:23:43.061Z,958.47
2016-04-03T10:24:43.064Z,958.43
2016-04-03T10:25:43.082Z,958.46
2016-04-03T10:26:43.085Z,958.43
2016-04-03T10:27:43.087Z,958.45
2016-04-03T10:28:43.105Z,958.45
2016-04-03T10:29:43.108Z,958.43
2016-04-03T10:30:43.111Z,958.45
2016-04-03T10:31:43.130Z,958.45
2016-04-03T10:32:43.132Z,958.41
2016-04-03T10:33:43.135Z,958.42
2016-04-03T10:34:43.152Z,958.45
2016-04-03T10:35:43.155Z,958.42
2016-04-03T10:36:43.157Z,958.41
2016-04-03T10:37:43.176Z,958.39
2016-04-03T10:38:43.585Z,958.38
2016-04-03T10:39:43.182Z,958.38
2016-04-03T10:40:43.201Z,958.35
2016-04-03T10:41:43.203Z,958.36
2016-04-03T10:42:43.221Z,958.39
2016-04-03T10:43:43.224Z,958.36
2016-04-03T10:44:43.227Z,958.4
2016-04-03T10:45:43.229Z,958.4
2016-04-03T10:46:43.248Z,958.39
2016-04-03T10:47:43.251Z,958.42
2016-04-03T10:48:43.253Z,958.42
2016-04-03T10:49:43.272Z,958.43
2016-04-03T10:50:43.274Z,958.41
2016-04-03T10:51:43.277Z,958.38
2016-04-03T10:52:43.294Z,958.38
2016-04-03T10:53:43.297Z,958.39
2016-04-03T10:54:43.300Z,958.36
2016-04-03T10:55:43.319Z,958.33
2016-04-03T10:56:43.322Z,958.33
2016-04-03T10:57:43.324Z,958.33
2016-04-03T10:58:43.358Z,958.3
2016-04-03T10:59:43.344Z,958.29
2016-04-03T11:00:43.347Z,958.31
2016-04-03T11:01:43.365Z,958.25
2016-04-03T11:02:43.368Z,958.22
2016-04-03T11:03:43.387Z,958.19
2016-04-03T11:04:43.390Z,958.22
2016-04-03T11:05:43.393Z,958.19
2016-04-03T11:06:43.411Z,958.17
2016-04-03T11:07:43.406Z,958.17
2016-04-03T11:08:43.423Z,958.11
2016-04-03T11:09:43.426Z,958.08
2016-04-03T11:10:43.429Z,958.06
2016-04-03T11:11:43.448Z,958.03
2016-04-03T11:12:43.451Z,958.02
2016-04-03T11:13:43.453Z,958.02
2016-04-03T11:14:43.471Z,958.01
2016-04-03T11:15:43.473Z,957.99
2016-04-03T11:16:43.476Z,957.97
2016-04-03T11:17:43.494Z,957.99
2016-04-03T11:18:43.513Z,957.93
2016-04-03T11:19:43.500Z,957.95
2016-04-03T11:20:43.519Z,957.94
2016-04-03T11:21:43.521Z,957.93
2016-04-03T11:22:43.539Z,957.94
2016-04-03T11:23:43.542Z,957.96
2016-04-03T11:24:43.544Z,957.93
2016-04-03T11:25:43.563Z,957.91
2016-04-03T11:26:43.566Z,957.89
2016-04-03T11:27:43.569Z,957.86
2016-04-03T11:28:43.588Z,957.86
2016-04-03T11:29:43.590Z,957.85
2016-04-03T11:30:43.593Z,957.89
2016-04-03T11:31:43.611Z,957.86
2016-04-03T11:32:43.613Z,957.88
2016-04-03T11:33:43.616Z,957.87
2016-04-03T11:34:43.634Z,957.84
2016-04-03T11:35:43.637Z,957.83
2016-04-03T11:36:43.655Z,957.82
2016-04-03T11:37:43.658Z,957.85
2016-04-03T11:38:43.661Z,957.87
2016-04-03T11:39:43.679Z,957.8
2016-04-03T11:40:43.682Z,957.8
2016-04-03T11:41:43.700Z,957.79
2016-04-03T11:42:43.703Z,957.8
2016-04-03T11:43:43.705Z,957.82
2016-04-03T11:44:43.708Z,957.82
2016-04-03T11:45:43.726Z,957.81
2016-04-03T11:46:43.729Z,957.76
2016-04-03T11:47:43.732Z,957.75
2016-04-03T11:48:43.750Z,957.75
2016-04-03T11:49:43.753Z,957.73
2016-04-03T11:50:43.772Z,957.75
2016-04-03T11:51:43.775Z,957.75
2016-04-03T11:52:43.777Z,957.72
2016-04-03T11:53:43.795Z,957.74
2016-04-03T11:54:43.798Z,957.68
2016-04-03T11:55:43.816Z,957.7
2016-04-03T11:56:43.819Z,957.69
2016-04-03T11:57:43.821Z,957.66
2016-04-03T11:58:43.839Z,957.67
2016-04-03T11:59:43.841Z,957.69
2016-04-03T12:00:43.860Z,957.67
2016-04-03T12:01:43.864Z,957.64
2016-04-03T12:02:43.866Z,957.64
2016-04-03T12:03:43.868Z,957.63
2016-04-03T12:04:43.888Z,957.61
2016-04-03T12:05:43.906Z,957.56
2016-04-03T12:06:43.893Z,957.55
2016-04-03T12:07:43.910Z,957.53
2016-04-03T12:08:43.913Z,957.5
2016-04-03T12:09:43.916Z,957.52
2016-04-03T12:10:43.935Z,957.51
2016-04-03T12:11:43.938Z,957.49
2016-04-03T12:12:43.956Z,957.49
2016-04-03T12:13:43.959Z,957.51
2016-04-03T12:14:43.976Z,957.47
2016-04-03T12:15:43.979Z,957.51
2016-04-03T12:16:43.982Z,957.49
2016-04-03T12:17:43.985Z,957.42
2016-04-03T12:18:44.003Z,957.44
2016-04-03T12:19:44.005Z,957.42
2016-04-03T12:20:44.024Z,957.43
2016-04-03T12:21:44.026Z,957.42
2016-04-03T12:22:44.029Z,957.37
2016-04-03T12:23:44.047Z,957.36
2016-04-03T12:24:44.050Z,957.3
2016-04-03T12:25:44.053Z,957.27
2016-04-03T12:26:44.071Z,957.24
2016-04-03T12:27:44.075Z,957.22
2016-04-03T12:28:44.077Z,957.22
2016-04-03T12:29:44.095Z,957.2
2016-04-03T12:30:44.114Z,957.17
2016-04-03T12:31:44.116Z,957.15